• Join FlightAware (Why Join?)
  • Login
  • US Flag 
03:10AM EST


 

Airport Tracker/Info


-or-


 

Live Flight TrackerFlight Track Log ✈ TAM3853 ✈ 04-May-2013 ✈ SBBR / BSB - SBCF / CNF

Flight Track Log - Related Links

Times and Time Zones

All times are in EDT time to prevent confusion due to time zone crossing. See the TAM3853 flight status page for this flight to view local times or setup timezone preferences in your user account.

Time Position Orientation Groundspeed Altitude Reporting Facility
EDT Latitude Longitude Course Direction KTS MPH feet Rate Location/Type
08:58PM -16.6468 -47.1124 136° Southeast  Level Estimated
08:59PM -16.7070 -47.0505 135° Southeast  Level Estimated
09:00PM -16.7672 -46.9887 135° Southeast  Level Estimated
09:01PM -16.8274 -46.9268 135° Southeast  Level Estimated
09:02PM -16.8875 -46.8648 135° Southeast  Level Estimated
09:03PM -16.9477 -46.8028 135° Southeast  Level Estimated
09:04PM -17.0078 -46.7408 135° Southeast  Level Estimated
09:05PM -17.0679 -46.6788 135° Southeast  Level Estimated
09:06PM -17.1279 -46.6167 135° Southeast  Level Estimated
09:07PM -17.1880 -46.5545 135° Southeast  Level Estimated
09:08PM -17.2480 -46.4923 135° Southeast  Level Estimated
09:09PM -17.3080 -46.4301 135° Southeast  Level Estimated
09:10PM -17.3680 -46.3678 135° Southeast  Level Estimated
09:11PM -17.4280 -46.3055 135° Southeast  Level Estimated
09:12PM -17.4879 -46.2432 135° Southeast  Level Estimated
09:13PM -17.5479 -46.1808 135° Southeast  Level Estimated
09:14PM -17.6078 -46.1184 135° Southeast  Level Estimated
09:15PM -17.6677 -46.0559 135° Southeast  Level Estimated
09:16PM -17.7276 -45.9934 135° Southeast  Level Estimated
09:17PM -17.7874 -45.9308 135° Southeast  Level Estimated
09:18PM -17.8473 -45.8682 135° Southeast  Level Estimated
09:19PM -17.9071 -45.8056 135° Southeast  Level Estimated
09:20PM -17.9669 -45.7429 135° Southeast  Level Estimated
09:21PM -18.0267 -45.6802 135° Southeast  Level Estimated
09:22PM -18.0864 -45.6174 135° Southeast  Level Estimated
09:23PM -18.1462 -45.5546 135° Southeast  Level Estimated
09:24PM -18.2059 -45.4917 135° Southeast  Level Estimated
09:25PM -18.2656 -45.4288 135° Southeast  Level Estimated
09:26PM -18.3253 -45.3659 135° Southeast  Level Estimated
09:27PM -18.3849 -45.3029 135° Southeast  Level Estimated
09:28PM -18.4445 -45.2399 135° Southeast  Level Estimated
09:29PM -18.5042 -45.1768 135° Southeast  Level Estimated
09:30PM -18.5637 -45.1137 135° Southeast  Level Estimated
09:31PM -18.6233 -45.0505 135° Southeast  Level Estimated
09:32PM -18.6829 -44.9874 135° Southeast  Level Estimated
09:33PM -18.7424 -44.9241 135° Southeast  Level Estimated
09:34PM -18.8019 -44.8608 135° Southeast  Level Estimated
09:35PM -18.8614 -44.7975 135° Southeast  Level Estimated
09:36PM -18.9209 -44.7341 135° Southeast  Level Estimated
09:37PM -18.9803 -44.6707 135° Southeast  Level Estimated
09:38PM -19.0397 -44.6072 135° Southeast  Level Estimated
09:39PM -19.0991 -44.5437 135° Southeast  Level Estimated
09:40PM -19.1585 -44.4801 135° Southeast  Level Estimated
09:41PM -19.2178 -44.4165 135° Southeast  Level Estimated
09:42PM -19.2772 -44.3529 135° Southeast  Level Estimated
09:43PM -19.3365 -44.2892 135° Southeast  Level Estimated
09:44PM -19.3958 -44.2254 135° Southeast  Level Estimated
09:45PM -19.4551 -44.1616 135° Southeast  Level Estimated
09:46PM -19.5143 -44.0978 135° Southeast  Level Estimated
09:47PM -19.5735 -44.0339 135° Southeast  Level Estimated
09:48PM -19.6327 -43.9700 135° Southeast  Level Estimated
09:49PM -19.6338 -43.9689 134° Southeast  Level Estimated
09:50PM -19.6338 -43.9689 90° East  Level Estimated
09:51PM -19.6338 -43.9689 90° East  Level Estimated
09:52PM -19.6338 -43.9689 90° East  Level Estimated
09:53PM -19.6338 -43.9689 90° East  Level Estimated
09:54PM -19.6338 -43.9689 90° East  Level Estimated
09:55PM -19.6338 -43.9689 90° East  Level Estimated
09:56PM -19.6338 -43.9689 90° East  Level Estimated
09:57PM -19.6338 -43.9689 90° East  Level Estimated
09:58PM -19.6338 -43.9689 90° East  Level Estimated
09:59PM -19.6338 -43.9689 90° East  Level Estimated
10:00PM -19.6338 -43.9689 90° East  Level Estimated
10:01PM -19.6338 -43.9689 90° East  Level Estimated
10:02PM -19.6338 -43.9689 90° East  Level Estimated
10:03PM -19.6338 -43.9689 90° East  Level Estimated
10:04PM -19.6338 -43.9689 90° East  Level Estimated